createdAt,value
2017-08-04T06:07:42.014Z,12.00
2017-08-04T06:08:42.007Z,12.00
2017-08-04T06:10:34.941Z,12.00
2017-08-04T06:11:34.944Z,16.00
2017-08-04T06:22:36.739Z,12.00
2017-08-04T06:23:36.740Z,12.00
2017-08-04T06:36:51.760Z,16.00
2017-08-04T06:50:10.066Z,16.00
2017-08-04T07:03:38.618Z,16.00
2017-08-04T07:11:35.912Z,12.00
2017-08-04T07:11:35.912Z,12.00
2017-08-04T08:58:36.847Z,132.00
2017-08-04T08:58:37.132Z,132.00
2017-08-04T08:58:37.425Z,132.00
2017-08-04T08:58:37.773Z,132.00
2017-08-04T08:58:38.093Z,132.00
2017-08-04T08:58:38.403Z,128.00
2017-08-04T08:58:38.735Z,132.00
2017-08-04T14:46:43.883Z,28.00
2017-08-04T14:46:44.025Z,28.00
2017-08-04T14:46:44.136Z,32.00
2017-08-04T14:46:44.261Z,28.00
2017-08-04T14:46:44.377Z,28.00
2017-08-04T14:46:44.489Z,32.00
2017-08-04T14:46:44.623Z,28.00
2017-08-04T14:46:44.744Z,28.00
2017-08-04T14:46:44.876Z,28.00
2017-08-04T14:46:44.986Z,32.00
2017-08-04T14:46:45.105Z,28.00
2017-08-04T14:46:45.229Z,28.00
2017-08-04T14:46:45.391Z,28.00
2017-08-04T14:46:45.812Z,28.00
2017-08-04T14:46:45.961Z,28.00
2017-08-04T14:46:46.061Z,28.00
2017-08-04T14:46:46.187Z,28.00
2017-08-04T14:46:46.312Z,28.00
2017-08-04T14:46:46.428Z,28.00
2017-08-04T14:46:46.549Z,28.00
2017-08-04T14:46:46.672Z,28.00
2017-08-04T14:46:46.815Z,28.00
2017-08-04T14:46:46.933Z,28.00
2017-08-04T14:46:47.057Z,28.00
2017-08-04T14:46:47.181Z,28.00
2017-08-04T14:46:47.272Z,28.00
2017-08-04T14:46:47.396Z,24.00
2017-08-04T14:46:47.523Z,24.00
2017-08-04T14:46:47.642Z,28.00
2017-08-04T14:46:47.768Z,28.00
2017-08-04T14:46:47.920Z,28.00
2017-08-04T14:46:48.006Z,28.00
2017-08-04T14:46:48.119Z,24.00
2017-08-04T14:46:48.253Z,28.00
2017-08-04T14:46:48.356Z,24.00
2017-08-04T14:46:48.480Z,24.00
2017-08-04T14:46:48.615Z,28.00
2017-08-04T14:46:48.722Z,28.00
2017-08-04T14:46:48.856Z,28.00
2017-08-04T14:46:48.981Z,28.00
2017-08-04T14:46:49.084Z,24.00
2017-08-04T14:49:00.380Z,20.00
2017-08-04T14:49:00.650Z,20.00
2017-08-04T14:49:00.961Z,20.00
2017-08-04T14:49:01.173Z,20.00
2017-08-04T14:49:01.464Z,20.00
2017-08-04T14:49:01.830Z,20.00
2017-08-04T14:49:02.089Z,20.00
2017-08-04T14:49:02.319Z,20.00
2017-08-04T14:49:02.553Z,20.00
2017-08-04T14:49:02.793Z,20.00
2017-08-04T14:49:03.053Z,20.00
2017-08-04T14:49:03.302Z,20.00
2017-08-04T14:49:03.558Z,20.00
2017-08-04T14:49:03.819Z,20.00
2017-08-04T14:49:04.078Z,20.00
2017-08-04T14:49:04.352Z,20.00
2017-08-04T14:49:04.596Z,20.00
2017-08-04T14:49:04.848Z,20.00
2017-08-04T14:49:05.114Z,20.00
2017-08-04T14:49:05.377Z,20.00
2017-08-04T15:43:20.334Z,16.00
2017-08-04T15:43:20.586Z,16.00
2017-08-04T15:43:20.842Z,16.00
2017-08-04T15:43:21.103Z,16.00
2017-08-04T15:43:21.688Z,16.00
2017-08-04T15:43:21.894Z,16.00
2017-08-04T15:43:22.151Z,16.00
2017-08-04T15:43:22.408Z,16.00
2017-08-04T15:43:22.671Z,16.00
2017-08-04T15:43:22.934Z,16.00
2017-08-04T15:43:23.185Z,16.00
2017-08-04T15:43:23.443Z,16.00
2017-08-04T15:43:23.695Z,16.00
2017-08-04T15:43:23.947Z,16.00
2017-08-04T15:43:24.211Z,16.00
2017-08-04T15:43:24.469Z,16.00
2017-08-04T15:43:24.731Z,16.00
2017-08-04T15:43:24.987Z,16.00
2017-08-04T15:43:25.240Z,16.00
2017-08-04T15:43:25.496Z,16.00
2017-08-04T15:43:25.754Z,16.00
2017-08-04T15:43:26.016Z,16.00
2017-08-04T15:43:26.271Z,16.00
2017-08-04T15:43:26.529Z,16.00
2017-08-04T15:43:26.787Z,16.00
2017-08-04T15:43:27.044Z,16.00
2017-08-04T15:43:27.302Z,16.00
2017-08-04T15:43:27.554Z,16.00
2017-08-04T15:43:27.813Z,16.00
2017-08-04T15:43:28.080Z,16.00
2017-08-04T15:43:28.329Z,16.00
2017-08-04T15:43:28.586Z,16.00
2017-08-04T15:43:28.844Z,16.00
2017-08-04T15:43:29.101Z,16.00
2017-08-04T15:43:29.358Z,16.00
2017-08-04T15:43:29.618Z,16.00
2017-08-04T15:43:29.881Z,16.00
2017-08-04T15:43:30.133Z,16.00
2017-08-04T15:43:30.398Z,16.00
2017-08-04T15:43:30.653Z,16.00
2017-08-04T15:43:30.913Z,16.00
2017-08-04T15:43:31.160Z,16.00
2017-08-04T15:43:31.413Z,16.00
2017-08-04T15:43:31.676Z,16.00
2017-08-04T15:43:31.936Z,16.00
2017-08-04T15:43:32.200Z,16.00
2017-08-04T15:43:32.440Z,16.00
2017-08-04T15:43:32.708Z,16.00
2017-08-04T15:43:32.963Z,16.00
2017-08-04T15:43:33.220Z,16.00
2017-08-04T15:43:33.483Z,16.00
2017-08-04T15:43:33.746Z,16.00
2017-08-04T15:43:34.005Z,16.00
2017-08-04T15:43:34.257Z,16.00
2017-08-04T15:43:34.522Z,16.00
2017-08-04T15:43:34.776Z,16.00
2017-08-04T15:43:35.026Z,16.00
2017-08-04T15:43:35.286Z,16.00
2017-08-04T15:43:35.538Z,16.00
2017-08-04T15:43:35.797Z,16.00
2017-08-04T15:43:36.059Z,16.00
2017-08-04T15:43:36.316Z,16.00
2017-08-04T15:43:36.574Z,16.00
2017-08-04T15:43:36.833Z,16.00
2017-08-04T15:43:37.094Z,16.00
2017-08-04T15:43:37.349Z,16.00
2017-08-04T15:43:37.606Z,16.00
2017-08-04T15:43:37.863Z,16.00
2017-08-04T15:43:38.120Z,16.00
2017-08-04T15:43:38.377Z,16.00
2017-08-04T15:43:38.633Z,16.00
2017-08-04T15:43:38.892Z,16.00
2017-08-04T15:43:39.157Z,16.00
2017-08-04T15:43:39.405Z,16.00
2017-08-04T15:43:39.663Z,16.00
2017-08-04T15:43:39.924Z,16.00
2017-08-04T15:43:40.187Z,16.00
2017-08-04T15:43:40.441Z,16.00
2017-08-04T15:43:40.706Z,16.00
2017-08-04T15:43:40.967Z,16.00
2017-08-04T15:43:41.229Z,16.00
2017-08-04T15:43:41.476Z,16.00
2017-08-04T15:43:41.747Z,16.00
2017-08-04T15:43:42.009Z,16.00
2017-08-04T15:43:42.276Z,16.00
2017-08-04T15:43:42.520Z,16.00
2017-08-04T15:43:42.774Z,16.00
2017-08-04T15:43:43.035Z,16.00
2017-08-04T15:43:43.288Z,16.00
2017-08-04T15:43:43.551Z,16.00
2017-08-04T15:43:43.808Z,16.00
2017-08-04T15:43:44.066Z,16.00
2017-08-04T15:43:44.328Z,16.00
2017-08-04T15:43:44.584Z,16.00
2017-08-04T15:43:44.842Z,16.00
2017-08-04T15:43:45.101Z,16.00
2017-08-04T15:43:45.356Z,16.00
2017-08-04T15:43:45.608Z,16.00
2017-08-04T15:43:45.865Z,16.00
2017-08-04T15:43:46.125Z,16.00
2017-08-04T15:43:46.382Z,16.00
2017-08-04T15:43:46.644Z,16.00
2017-08-04T15:43:46.904Z,16.00
2017-08-04T15:43:47.159Z,16.00
2017-08-04T15:43:47.417Z,16.00
2017-08-04T15:43:47.673Z,16.00
2017-08-04T15:43:47.928Z,16.00
2017-08-04T15:43:48.189Z,16.00
2017-08-04T15:43:48.438Z,16.00
2017-08-04T15:43:48.698Z,16.00
2017-08-04T15:43:48.955Z,16.00
2017-08-04T15:43:49.214Z,16.00
2017-08-04T15:43:49.471Z,16.00
2017-08-04T15:43:49.721Z,16.00
2017-08-04T15:43:49.984Z,16.00
2017-08-04T15:43:50.243Z,16.00
2017-08-04T15:43:50.501Z,16.00
2017-08-04T15:43:50.766Z,16.00
2017-08-04T15:43:51.023Z,16.00
2017-08-04T15:43:51.279Z,16.00
2017-08-04T15:43:51.535Z,16.00
2017-08-04T15:43:51.796Z,16.00
2017-08-04T15:43:52.056Z,16.00
2017-08-04T15:43:52.307Z,16.00
2017-08-04T15:43:52.570Z,16.00
2017-08-04T15:43:52.823Z,16.00
2017-08-04T15:43:53.087Z,16.00
2017-08-04T15:43:53.343Z,16.00
2017-08-04T15:43:53.601Z,16.00
2017-08-04T15:43:53.856Z,16.00
2017-08-04T15:43:54.123Z,16.00
2017-08-04T15:43:54.375Z,16.00
2017-08-04T15:43:54.630Z,16.00
2017-08-04T15:43:54.889Z,16.00
2017-08-04T15:43:55.141Z,16.00
2017-08-04T15:43:55.407Z,16.00
2017-08-04T15:43:55.666Z,16.00
2017-08-04T15:43:55.918Z,16.00
2017-08-04T15:43:56.177Z,16.00
2017-08-04T15:43:56.427Z,16.00
2017-08-04T15:43:56.682Z,16.00
2017-08-04T15:43:56.941Z,16.00
2017-08-04T15:43:57.197Z,16.00
2017-08-04T15:43:57.455Z,16.00
2017-08-04T15:43:57.717Z,16.00
2017-08-04T15:43:57.970Z,16.00
2017-08-04T15:43:58.228Z,16.00
2017-08-04T15:43:58.485Z,16.00
2017-08-04T15:43:58.753Z,16.00
2017-08-04T15:43:59.007Z,16.00
2017-08-04T15:43:59.271Z,16.00
2017-08-04T15:43:59.525Z,16.00
2017-08-04T15:43:59.784Z,16.00
2017-08-04T15:44:00.037Z,16.00
2017-08-04T15:44:00.293Z,16.00
2017-08-04T15:44:00.548Z,16.00
2017-08-04T15:44:00.815Z,16.00
2017-08-04T15:44:01.073Z,16.00
2017-08-04T15:44:01.323Z,16.00
2017-08-04T15:44:01.588Z,16.00
2017-08-04T15:44:01.841Z,20.00
2017-08-04T15:44:02.103Z,16.00
2017-08-04T15:44:02.361Z,16.00
2017-08-04T15:44:02.617Z,20.00
2017-08-04T15:44:02.876Z,16.00
2017-08-04T15:44:03.134Z,16.00
2017-08-04T15:44:03.392Z,16.00
2017-08-04T15:44:03.641Z,16.00
2017-08-04T15:44:03.906Z,16.00
2017-08-04T15:44:04.160Z,16.00
2017-08-04T15:44:04.423Z,16.00
2017-08-04T15:44:04.681Z,16.00
2017-08-04T15:44:04.936Z,16.00
2017-08-04T15:44:05.199Z,16.00
2017-08-04T15:44:05.453Z,16.00
2017-08-04T15:44:05.708Z,16.00
2017-08-04T15:44:05.967Z,16.00
2017-08-04T15:44:06.224Z,16.00
2017-08-04T15:44:06.481Z,16.00
2017-08-04T15:44:06.745Z,16.00
2017-08-04T15:44:07.008Z,16.00
2017-08-04T15:44:07.266Z,16.00
2017-08-04T15:44:07.525Z,16.00
2017-08-04T15:44:07.773Z,16.00
2017-08-04T15:44:08.034Z,20.00
2017-08-04T15:44:08.295Z,20.00
2017-08-04T15:44:08.548Z,20.00
2017-08-04T15:44:08.804Z,20.00
2017-08-04T15:44:09.063Z,20.00
2017-08-04T15:44:09.331Z,20.00
2017-08-04T15:44:09.573Z,20.00
2017-08-04T15:44:09.834Z,20.00
2017-08-04T15:44:10.098Z,20.00
2017-08-04T15:44:10.352Z,20.00
2017-08-04T15:44:10.605Z,20.00
2017-08-04T15:44:10.859Z,20.00
2017-08-04T15:44:11.120Z,20.00
2017-08-04T15:44:11.380Z,20.00
2017-08-04T15:44:11.636Z,16.00
2017-08-04T15:44:11.895Z,20.00
2017-08-04T15:44:12.161Z,20.00
2017-08-04T15:44:12.423Z,20.00
2017-08-04T15:44:12.679Z,16.00
2017-08-04T15:44:12.937Z,16.00
2017-08-04T15:44:13.199Z,20.00
2017-08-04T15:44:13.451Z,20.00
2017-08-04T15:44:13.706Z,16.00
2017-08-04T15:44:13.965Z,20.00
2017-08-04T15:44:14.226Z,20.00
2017-08-04T15:44:14.485Z,20.00
2017-08-04T15:44:14.740Z,16.00
2017-08-04T15:44:14.999Z,16.00
2017-08-04T15:44:15.266Z,20.00
2017-08-04T15:44:15.523Z,16.00
2017-08-04T15:44:15.774Z,16.00
2017-08-04T15:44:16.026Z,16.00
2017-08-04T15:44:16.281Z,16.00
2017-08-04T15:44:16.535Z,16.00
2017-08-04T15:44:16.798Z,16.00
2017-08-04T15:44:17.050Z,16.00
2017-08-04T15:44:17.309Z,20.00
2017-08-04T15:44:17.564Z,20.00
2017-08-04T15:44:17.823Z,20.00
2017-08-04T15:44:18.078Z,20.00
2017-08-04T15:44:18.330Z,20.00
2017-08-04T15:44:18.592Z,20.00
2017-08-04T15:44:18.841Z,20.00
2017-08-04T15:44:19.102Z,20.00
2017-08-04T15:44:19.354Z,20.00
2017-08-04T15:44:19.613Z,20.00
2017-08-04T15:44:19.873Z,20.00
2017-08-04T15:44:20.137Z,20.00
2017-08-04T15:44:20.395Z,20.00
2017-08-04T15:44:20.648Z,20.00
2017-08-04T15:44:20.902Z,20.00
2017-08-04T15:44:21.161Z,20.00
2017-08-04T15:44:21.413Z,20.00
2017-08-04T15:44:21.672Z,20.00
2017-08-04T15:44:21.929Z,20.00
2017-08-04T15:44:22.183Z,20.00
2017-08-04T15:44:22.440Z,20.00
2017-08-04T15:44:22.697Z,20.00
2017-08-04T15:44:22.952Z,20.00
2017-08-04T15:44:23.207Z,20.00
2017-08-04T15:44:23.469Z,20.00
2017-08-04T15:44:23.734Z,20.00
2017-08-04T15:44:23.987Z,20.00
2017-08-04T15:44:24.249Z,20.00
2017-08-04T15:44:24.516Z,20.00
2017-08-04T15:44:24.757Z,20.00
2017-08-04T15:44:25.022Z,20.00
2017-08-04T15:44:25.273Z,20.00
2017-08-04T15:44:25.524Z,20.00
2017-08-04T15:44:25.813Z,20.00
2017-08-04T15:44:26.058Z,20.00
2017-08-04T15:44:26.317Z,20.00
2017-08-04T15:44:26.579Z,20.00
2017-08-04T15:44:26.836Z,20.00
2017-08-04T15:44:27.089Z,20.00
2017-08-04T15:44:27.346Z,20.00
2017-08-04T15:44:27.608Z,20.00
2017-08-04T15:44:27.864Z,20.00
2017-08-04T15:44:28.118Z,20.00
2017-08-04T15:44:28.377Z,20.00
2017-08-04T15:44:28.642Z,20.00
2017-08-04T15:44:28.904Z,20.00
2017-08-04T15:44:29.155Z,20.00
2017-08-04T15:44:29.415Z,20.00
2017-08-04T15:44:29.672Z,20.00
2017-08-04T15:44:29.932Z,20.00
2017-08-04T15:44:30.180Z,20.00
2017-08-04T15:44:30.436Z,20.00
2017-08-04T15:44:30.691Z,20.00
2017-08-04T15:44:30.947Z,20.00
2017-08-04T15:44:31.205Z,20.00
2017-08-04T15:44:31.467Z,20.00
2017-08-04T15:44:31.723Z,20.00
2017-08-04T15:44:31.980Z,20.00
2017-08-04T15:44:32.240Z,20.00
2017-08-04T15:44:32.496Z,20.00
2017-08-04T15:44:32.743Z,20.00
2017-08-04T15:44:32.998Z,20.00
2017-08-04T15:44:33.258Z,20.00
2017-08-04T15:44:33.516Z,20.00
2017-08-04T15:44:33.773Z,20.00
2017-08-04T15:44:34.025Z,20.00
2017-08-04T15:44:34.285Z,20.00
2017-08-04T15:44:34.548Z,20.00
2017-08-04T15:44:34.795Z,20.00
2017-08-04T15:44:35.051Z,20.00
2017-08-04T15:44:35.302Z,20.00
2017-08-04T15:44:35.561Z,20.00
2017-08-04T15:44:35.820Z,20.00
2017-08-04T15:44:36.079Z,20.00
2017-08-04T15:44:36.332Z,20.00
2017-08-04T15:44:36.587Z,20.00
2017-08-04T15:44:36.844Z,20.00
2017-08-04T15:44:37.099Z,20.00
2017-08-04T15:44:37.356Z,20.00
2017-08-04T15:44:37.610Z,20.00
2017-08-04T15:44:37.869Z,20.00
2017-08-04T15:44:38.123Z,20.00
2017-08-04T15:44:38.384Z,20.00
2017-08-04T15:44:38.644Z,20.00
2017-08-04T15:44:38.903Z,20.00
2017-08-04T15:44:39.157Z,20.00
2017-08-04T15:44:39.423Z,20.00
2017-08-04T15:44:39.670Z,20.00
2017-08-04T15:44:39.928Z,20.00
2017-08-04T15:44:40.186Z,20.00
2017-08-04T15:44:40.438Z,20.00
2017-08-04T15:44:40.692Z,20.00
2017-08-04T15:44:40.948Z,20.00
2017-08-04T15:44:41.209Z,20.00
2017-08-04T15:44:41.469Z,20.00
2017-08-04T15:44:41.726Z,20.00
2017-08-04T15:44:41.986Z,20.00
2017-08-04T15:44:42.244Z,20.00
2017-08-04T15:44:42.503Z,20.00
2017-08-04T15:44:42.754Z,20.00
2017-08-04T15:44:43.021Z,20.00
2017-08-04T15:44:43.269Z,20.00
2017-08-04T15:44:43.532Z,20.00
2017-08-04T15:44:43.776Z,20.00
2017-08-04T15:44:44.033Z,20.00
2017-08-04T15:44:44.289Z,20.00
2017-08-04T15:44:44.545Z,20.00
2017-08-04T15:44:44.805Z,20.00
2017-08-04T15:44:45.062Z,20.00
2017-08-04T15:44:45.321Z,20.00
2017-08-04T15:44:45.577Z,20.00
2017-08-04T15:44:45.836Z,20.00
2017-08-04T15:44:46.085Z,20.00
2017-08-04T15:44:46.347Z,20.00
2017-08-04T15:44:46.610Z,20.00
2017-08-04T15:44:46.863Z,20.00
2017-08-04T15:44:47.117Z,20.00
2017-08-04T15:44:47.380Z,20.00
2017-08-04T15:44:47.635Z,20.00
2017-08-04T15:44:47.894Z,20.00
2017-08-04T15:44:48.147Z,20.00
2017-08-04T15:44:48.405Z,20.00
2017-08-04T15:44:48.654Z,20.00
2017-08-04T15:44:48.920Z,20.00
2017-08-04T15:44:49.176Z,20.00
2017-08-04T15:44:49.435Z,20.00
2017-08-04T15:44:49.690Z,20.00
2017-08-04T15:44:49.948Z,20.00
2017-08-04T15:44:50.212Z,20.00
2017-08-04T15:44:50.464Z,20.00
2017-08-04T15:44:50.728Z,20.00
2017-08-04T15:44:50.993Z,20.00
2017-08-04T15:44:51.241Z,20.00
2017-08-04T15:44:51.498Z,20.00
2017-08-04T15:44:51.758Z,20.00
2017-08-04T15:44:52.013Z,20.00
2017-08-04T15:44:52.275Z,16.00
2017-08-04T15:44:52.533Z,16.00
2017-08-04T15:44:52.789Z,16.00
2017-08-04T15:44:53.042Z,16.00
2017-08-04T15:44:53.303Z,20.00
2017-08-04T15:44:53.557Z,20.00
2017-08-04T15:44:53.815Z,16.00
2017-08-04T15:44:54.069Z,16.00
2017-08-04T15:44:54.323Z,20.00
2017-08-04T15:44:54.572Z,20.00
2017-08-04T15:44:54.831Z,20.00
2017-08-04T15:44:55.093Z,16.00
2017-08-04T15:44:55.346Z,16.00
2017-08-04T15:44:55.606Z,20.00
2017-08-04T15:44:55.863Z,20.00
2017-08-04T15:44:56.119Z,20.00
2017-08-04T15:44:56.376Z,20.00
2017-08-04T15:44:56.632Z,20.00
2017-08-04T15:44:56.890Z,20.00
2017-08-04T15:44:57.145Z,20.00
2017-08-04T15:44:57.404Z,20.00
2017-08-04T15:44:57.656Z,20.00
2017-08-04T15:44:57.919Z,20.00
2017-08-04T15:44:58.175Z,20.00
2017-08-04T15:44:58.431Z,16.00
2017-08-04T15:44:58.691Z,20.00
2017-08-04T15:44:58.943Z,20.00
2017-08-04T15:44:59.198Z,20.00
2017-08-04T15:44:59.459Z,20.00
2017-08-04T15:44:59.718Z,20.00
2017-08-04T15:44:59.974Z,20.00
2017-08-04T15:45:00.233Z,20.00
2017-08-04T15:45:00.486Z,16.00
2017-08-04T15:45:00.745Z,20.00
2017-08-04T15:45:00.996Z,20.00
2017-08-04T15:45:01.252Z,20.00
2017-08-04T15:45:01.514Z,16.00
2017-08-04T15:45:01.771Z,20.00
2017-08-04T15:45:02.047Z,20.00
2017-08-04T15:45:02.292Z,16.00
2017-08-04T15:45:02.554Z,16.00
2017-08-04T15:45:02.811Z,20.00
2017-08-04T15:45:03.067Z,16.00
2017-08-04T15:45:03.340Z,16.00
2017-08-04T15:45:03.581Z,16.00
2017-08-04T15:45:03.835Z,16.00
2017-08-04T15:45:04.103Z,20.00
2017-08-04T15:45:04.356Z,16.00
2017-08-04T15:45:04.613Z,16.00
2017-08-04T15:45:04.873Z,16.00
2017-08-04T15:45:05.126Z,20.00
2017-08-04T15:45:05.383Z,16.00
2017-08-04T15:45:05.634Z,16.00
2017-08-04T15:45:05.889Z,16.00
2017-08-04T15:45:06.178Z,16.00
2017-08-04T15:45:06.407Z,16.00
2017-08-04T15:45:06.665Z,16.00
2017-08-04T15:45:06.923Z,16.00
2017-08-04T15:45:07.181Z,16.00
2017-08-04T15:45:07.446Z,16.00
2017-08-04T15:45:07.699Z,16.00
2017-08-04T15:45:07.960Z,16.00
2017-08-04T15:45:08.217Z,16.00
2017-08-04T15:45:08.472Z,16.00
2017-08-04T15:45:08.730Z,16.00
2017-08-04T15:45:08.983Z,16.00
2017-08-04T15:45:09.238Z,16.00
2017-08-04T15:45:09.490Z,16.00
2017-08-04T15:45:09.746Z,16.00
2017-08-04T15:45:10.009Z,16.00
2017-08-04T15:45:10.260Z,16.00
2017-08-04T15:45:10.513Z,16.00
2017-08-04T15:45:10.776Z,16.00
2017-08-04T15:45:11.035Z,16.00
2017-08-04T15:45:11.296Z,16.00
2017-08-04T15:45:11.562Z,16.00
2017-08-04T15:45:11.829Z,16.00
2017-08-04T15:45:12.079Z,16.00
2017-08-04T15:45:12.345Z,16.00
2017-08-04T15:45:12.603Z,16.00
2017-08-04T15:45:12.863Z,16.00
2017-08-04T15:45:13.116Z,16.00
2017-08-04T15:45:13.377Z,16.00
2017-08-04T15:45:13.635Z,20.00
2017-08-04T15:45:13.891Z,16.00
2017-08-04T15:45:14.142Z,16.00
2017-08-04T15:45:14.402Z,16.00
2017-08-04T15:45:14.659Z,16.00
2017-08-04T15:45:14.919Z,16.00
2017-08-04T15:45:15.176Z,16.00
2017-08-04T15:45:15.435Z,16.00
2017-08-04T15:45:15.692Z,16.00
2017-08-04T15:45:15.951Z,16.00
2017-08-04T15:45:16.209Z,16.00
2017-08-04T15:45:16.462Z,16.00
2017-08-04T15:45:16.723Z,16.00
2017-08-04T15:45:16.979Z,16.00
2017-08-04T15:45:17.238Z,16.00
2017-08-04T15:45:17.495Z,16.00
2017-08-04T15:45:17.757Z,16.00
2017-08-04T15:45:18.012Z,16.00
2017-08-04T15:45:18.264Z,16.00
2017-08-04T15:45:18.520Z,16.00
2017-08-04T15:45:18.778Z,16.00
2017-08-04T15:45:19.027Z,16.00
2017-08-04T15:45:19.298Z,16.00
2017-08-04T15:45:19.545Z,16.00
2017-08-04T15:45:19.796Z,16.00
2017-08-04T15:45:20.056Z,16.00
2017-08-04T15:45:20.309Z,16.00
2017-08-04T15:45:20.568Z,16.00
2017-08-04T15:45:20.827Z,16.00
2017-08-04T15:45:21.085Z,16.00
2017-08-04T15:45:21.337Z,16.00
2017-08-04T15:45:21.593Z,16.00
2017-08-04T15:45:21.849Z,16.00
2017-08-04T15:45:22.102Z,16.00
2017-08-04T15:45:22.351Z,16.00
2017-08-04T15:45:22.612Z,16.00
2017-08-04T15:45:22.863Z,16.00
2017-08-04T15:45:23.124Z,16.00
2017-08-04T15:45:23.379Z,16.00
2017-08-04T15:45:23.635Z,20.00
2017-08-04T15:45:23.902Z,16.00
2017-08-04T15:45:24.146Z,16.00
2017-08-04T15:45:24.397Z,16.00
2017-08-04T15:45:24.653Z,20.00
2017-08-04T15:45:24.912Z,16.00
2017-08-04T15:45:25.173Z,16.00
2017-08-04T15:45:25.435Z,16.00
2017-08-04T15:45:25.688Z,20.00
2017-08-04T15:45:25.948Z,20.00
2017-08-04T15:45:26.207Z,16.00
2017-08-04T15:45:26.463Z,20.00
2017-08-04T15:45:26.726Z,20.00
2017-08-04T15:45:26.977Z,20.00
2017-08-04T15:45:27.237Z,20.00
2017-08-04T15:45:27.490Z,20.00
2017-08-04T15:45:27.755Z,20.00
2017-08-04T15:45:28.007Z,20.00
2017-08-04T15:45:28.266Z,20.00
2017-08-04T15:45:28.527Z,20.00
2017-08-04T15:45:28.783Z,20.00
2017-08-04T15:45:29.042Z,20.00
2017-08-04T15:45:29.296Z,20.00
2017-08-04T15:45:29.554Z,20.00
2017-08-04T15:45:29.816Z,20.00
2017-08-04T15:45:30.069Z,20.00
2017-08-04T15:45:30.330Z,20.00
2017-08-04T15:45:30.583Z,20.00
2017-08-04T15:45:30.842Z,20.00
2017-08-04T15:45:31.104Z,20.00
2017-08-04T15:45:31.360Z,20.00
2017-08-04T15:45:31.619Z,20.00
2017-08-04T15:45:31.876Z,20.00
2017-08-04T15:45:32.138Z,20.00
2017-08-04T15:45:32.392Z,20.00
2017-08-04T15:45:32.651Z,20.00
2017-08-04T15:45:32.904Z,20.00
2017-08-04T15:45:33.158Z,20.00
2017-08-04T15:45:33.416Z,20.00
2017-08-04T15:45:33.673Z,20.00
2017-08-04T15:45:33.925Z,20.00
2017-08-04T15:45:34.183Z,20.00
2017-08-04T15:45:34.440Z,20.00
2017-08-04T15:45:34.695Z,20.00
2017-08-04T15:45:34.970Z,20.00
2017-08-04T15:45:35.223Z,20.00
2017-08-04T15:45:35.481Z,20.00
2017-08-04T15:45:35.736Z,20.00
2017-08-04T15:45:35.996Z,20.00
2017-08-04T15:45:36.249Z,20.00
2017-08-04T15:45:36.515Z,20.00
2017-08-04T15:45:36.775Z,20.00
2017-08-04T15:45:37.034Z,20.00
2017-08-04T15:45:37.288Z,20.00
2017-08-04T15:45:37.542Z,20.00
2017-08-04T15:45:37.802Z,20.00
2017-08-04T15:45:38.060Z,20.00
2017-08-04T15:45:38.316Z,20.00
2017-08-04T15:45:38.572Z,20.00
2017-08-04T15:45:38.823Z,20.00
2017-08-04T15:45:39.085Z,20.00
2017-08-04T15:45:39.339Z,20.00
2017-08-04T15:45:39.599Z,20.00
2017-08-04T15:45:39.849Z,20.00
2017-08-04T15:45:40.109Z,20.00
2017-08-04T15:45:40.369Z,20.00
2017-08-04T15:45:40.627Z,20.00
2017-08-04T15:45:40.876Z,20.00
2017-08-04T15:45:41.132Z,20.00
2017-08-04T15:45:41.393Z,20.00
2017-08-04T15:45:41.650Z,20.00
2017-08-04T15:45:41.916Z,20.00
2017-08-04T15:45:42.174Z,20.00
2017-08-04T15:45:42.429Z,20.00
2017-08-04T15:45:42.685Z,20.00
2017-08-04T15:45:42.943Z,20.00
2017-08-04T15:45:43.202Z,20.00
2017-08-04T15:45:43.459Z,20.00
2017-08-04T15:45:43.720Z,20.00
2017-08-04T15:45:43.977Z,20.00
2017-08-04T15:45:44.238Z,20.00
2017-08-04T15:45:44.495Z,20.00
2017-08-04T15:45:44.753Z,20.00
2017-08-04T15:45:45.012Z,20.00
2017-08-04T15:45:45.270Z,20.00
2017-08-04T15:45:45.525Z,20.00
2017-08-04T15:45:45.781Z,20.00
2017-08-04T15:45:46.045Z,20.00
2017-08-04T15:45:46.295Z,20.00
2017-08-04T15:45:46.551Z,20.00
2017-08-04T15:45:46.814Z,20.00
2017-08-04T15:45:47.070Z,20.00
2017-08-04T15:45:47.328Z,20.00
2017-08-04T15:45:47.584Z,20.00
2017-08-04T15:45:47.848Z,20.00
2017-08-04T15:45:48.101Z,20.00
2017-08-04T15:45:48.353Z,20.00
2017-08-04T15:45:48.614Z,20.00
2017-08-04T15:45:48.881Z,20.00
2017-08-04T15:45:49.137Z,20.00
2017-08-04T15:45:49.394Z,20.00
2017-08-04T15:45:49.648Z,20.00
2017-08-04T15:45:49.901Z,20.00
2017-08-04T15:45:50.159Z,20.00
2017-08-04T15:45:50.419Z,20.00
2017-08-04T15:45:50.672Z,20.00
2017-08-04T15:45:50.926Z,20.00
2017-08-04T15:45:51.194Z,20.00
2017-08-04T15:45:51.441Z,20.00
2017-08-04T15:45:51.698Z,20.00
2017-08-04T15:45:52.062Z,20.00
2017-08-04T15:45:52.227Z,20.00
2017-08-04T15:45:52.493Z,20.00
2017-08-04T15:45:52.748Z,20.00
2017-08-04T15:45:53.005Z,20.00
2017-08-04T15:45:53.263Z,20.00
2017-08-04T15:45:53.521Z,20.00
2017-08-04T15:45:53.773Z,20.00
2017-08-04T15:45:54.031Z,20.00
2017-08-04T15:45:54.283Z,20.00
2017-08-04T15:45:54.537Z,20.00
2017-08-04T15:45:54.793Z,20.00
2017-08-04T15:45:55.048Z,20.00
2017-08-04T15:45:55.309Z,20.00
2017-08-04T15:45:55.565Z,20.00
2017-08-04T15:45:55.824Z,20.00
2017-08-04T15:45:56.078Z,20.00
2017-08-04T15:45:56.335Z,20.00
2017-08-04T15:45:56.589Z,20.00
2017-08-04T15:45:56.852Z,20.00
2017-08-04T15:45:57.103Z,20.00
2017-08-04T15:45:57.354Z,20.00
2017-08-04T15:45:57.612Z,20.00
2017-08-04T15:45:57.868Z,20.00
2017-08-04T15:45:58.122Z,20.00
2017-08-04T15:45:58.387Z,20.00
2017-08-04T15:45:58.638Z,20.00
2017-08-04T15:45:58.894Z,20.00
2017-08-04T15:45:59.155Z,20.00
2017-08-04T15:45:59.412Z,20.00
2017-08-04T15:45:59.664Z,20.00
2017-08-04T15:45:59.922Z,20.00
2017-08-04T15:46:00.179Z,20.00
2017-08-04T15:46:00.438Z,20.00
2017-08-04T15:46:00.703Z,20.00
2017-08-04T15:46:00.953Z,20.00
2017-08-04T15:46:01.215Z,20.00
2017-08-04T15:46:01.473Z,20.00
2017-08-04T15:46:01.725Z,20.00
2017-08-04T15:46:01.981Z,20.00
2017-08-04T15:46:02.239Z,20.00
2017-08-04T15:46:02.498Z,16.00
2017-08-04T15:46:02.758Z,16.00
2017-08-04T15:46:03.013Z,16.00
2017-08-04T15:46:03.269Z,16.00
2017-08-04T15:46:03.525Z,16.00
2017-08-04T15:46:03.781Z,16.00
2017-08-04T15:46:04.042Z,16.00
2017-08-04T15:46:04.312Z,16.00
2017-08-04T15:46:04.569Z,16.00
2017-08-04T15:46:04.830Z,16.00
2017-08-04T15:46:05.083Z,16.00
2017-08-04T15:46:05.346Z,16.00
2017-08-04T15:46:05.596Z,16.00
2017-08-04T15:46:05.858Z,16.00
2017-08-04T15:46:06.104Z,16.00
2017-08-04T15:46:06.363Z,16.00
2017-08-04T15:46:06.614Z,16.00
2017-08-04T15:46:06.873Z,16.00
2017-08-04T15:46:07.136Z,16.00
2017-08-04T15:46:07.395Z,16.00
2017-08-04T15:46:07.647Z,16.00
2017-08-04T15:46:07.904Z,16.00
2017-08-04T15:46:08.167Z,16.00
2017-08-04T15:46:08.424Z,16.00
2017-08-04T15:46:08.680Z,16.00
2017-08-04T15:46:08.937Z,16.00
2017-08-04T15:46:09.190Z,16.00
2017-08-04T15:46:09.448Z,16.00
2017-08-04T15:46:09.705Z,16.00
2017-08-04T15:46:09.978Z,16.00
2017-08-04T15:46:10.228Z,16.00
2017-08-04T15:46:10.485Z,16.00
2017-08-04T15:46:10.744Z,16.00
2017-08-04T15:46:10.999Z,16.00
2017-08-04T15:46:11.255Z,16.00
2017-08-04T15:46:11.512Z,16.00
2017-08-04T15:46:11.773Z,16.00
2017-08-04T15:46:12.027Z,16.00
2017-08-04T15:46:12.288Z,16.00
2017-08-04T15:46:12.538Z,16.00
2017-08-04T15:46:12.799Z,16.00
2017-08-04T15:46:13.065Z,16.00
2017-08-04T15:46:13.308Z,16.00
2017-08-04T15:46:13.584Z,16.00
2017-08-04T15:46:13.834Z,16.00
2017-08-04T15:46:14.090Z,16.00
2017-08-04T15:46:14.344Z,16.00
2017-08-04T15:46:14.615Z,16.00
2017-08-04T15:46:14.871Z,16.00
2017-08-04T15:46:15.128Z,16.00
2017-08-04T15:46:15.386Z,16.00
2017-08-04T15:46:15.644Z,16.00
2017-08-04T15:46:15.905Z,16.00
2017-08-04T15:46:16.154Z,16.00
2017-08-04T15:46:16.429Z,16.00
2017-08-04T15:46:16.684Z,16.00
2017-08-04T15:46:16.945Z,16.00
2017-08-04T15:46:17.202Z,16.00
2017-08-04T15:46:17.453Z,16.00
2017-08-04T15:46:17.720Z,16.00
2017-08-04T15:46:17.975Z,16.00
2017-08-04T15:46:18.228Z,16.00
2017-08-04T15:46:18.490Z,16.00
2017-08-04T15:46:18.745Z,16.00
2017-08-04T15:46:19.008Z,16.00